createdAt,value
2019-01-15T00:00:43.957Z,66.52
2019-01-15T00:01:43.976Z,66.05
2019-01-15T00:02:43.994Z,65.11
2019-01-15T00:03:44.018Z,65.96
2019-01-15T00:04:44.031Z,65.96
2019-01-15T00:05:44.052Z,66.43
2019-01-15T00:06:44.069Z,66.62
2019-01-15T00:07:44.089Z,66.62
2019-01-15T00:08:44.109Z,68.04
2019-01-15T00:09:44.131Z,67.85
2019-01-15T00:10:44.146Z,66.90
2019-01-15T00:11:44.164Z,67.66
2019-01-15T00:12:44.186Z,68.88
2019-01-15T00:13:44.207Z,67.85
2019-01-15T00:14:44.226Z,67.75
2019-01-15T00:15:44.240Z,68.13
2019-01-15T00:16:44.259Z,69.17
2019-01-15T00:17:44.278Z,68.60
2019-01-15T00:18:44.302Z,67.47
2019-01-15T00:19:44.318Z,66.43
2019-01-15T00:20:44.336Z,65.20
2019-01-15T00:21:44.356Z,65.11
2019-01-15T00:22:44.379Z,66.34
2019-01-15T00:23:44.396Z,66.52
2019-01-15T00:24:44.413Z,66.05
2019-01-15T00:25:44.434Z,65.58
2019-01-15T00:26:44.454Z,65.96
2019-01-15T00:27:44.471Z,66.52
2019-01-15T00:28:44.494Z,67.00
2019-01-15T00:29:44.510Z,68.04
2019-01-15T00:30:44.535Z,68.98
2019-01-15T00:31:44.548Z,68.88
2019-01-15T00:32:44.569Z,69.64
2019-01-15T00:33:44.585Z,69.64
2019-01-15T00:34:44.605Z,68.95
2019-01-15T00:35:44.626Z,68.38
2019-01-15T00:36:44.645Z,68.57
2019-01-15T00:37:44.666Z,69.04
2019-01-15T00:38:44.684Z,68.47
2019-01-15T00:39:44.702Z,70.54
2019-01-15T00:40:44.720Z,70.26
2019-01-15T00:41:44.738Z,70.92
2019-01-15T00:42:44.760Z,70.83
2019-01-15T00:43:44.778Z,71.49
2019-01-15T00:44:44.798Z,68.95
2019-01-15T00:45:44.817Z,67.43
2019-01-15T00:46:44.835Z,66.96
2019-01-15T00:47:44.855Z,67.15
2019-01-15T00:48:44.874Z,66.49
2019-01-15T00:49:44.893Z,66.58
2019-01-15T00:50:44.913Z,66.87
2019-01-15T00:51:44.931Z,67.25
2019-01-15T00:52:44.949Z,68.10
2019-01-15T00:53:44.968Z,66.58
2019-01-15T00:54:44.986Z,65.26
2019-01-15T00:55:45.009Z,65.64
2019-01-15T00:56:45.028Z,66.02
2019-01-15T00:57:45.047Z,65.08
2019-01-15T00:58:45.068Z,66.02
2019-01-15T00:59:45.086Z,65.55
2019-01-15T01:00:45.103Z,65.92
2019-01-15T01:01:45.122Z,66.02
2019-01-15T01:02:45.140Z,65.92
2019-01-15T01:03:45.161Z,65.55
2019-01-15T01:04:45.177Z,66.21
2019-01-15T01:05:45.197Z,66.30
2019-01-15T01:06:45.219Z,66.02
2019-01-15T01:07:45.235Z,66.02
2019-01-15T01:08:45.254Z,65.64
2019-01-15T01:09:45.272Z,65.92
2019-01-15T01:10:45.291Z,66.21
2019-01-15T01:11:45.316Z,65.64
2019-01-15T01:12:45.331Z,65.73
2019-01-15T01:13:45.350Z,66.11
2019-01-15T01:14:45.369Z,65.36
2019-01-15T01:15:45.391Z,65.92
2019-01-15T01:16:45.405Z,66.02
2019-01-15T01:17:45.424Z,65.45
2019-01-15T01:18:45.443Z,65.55
2019-01-15T01:19:45.463Z,65.36
2019-01-15T01:20:45.482Z,65.45
2019-01-15T01:21:45.499Z,65.08
2019-01-15T01:22:45.519Z,65.17
2019-01-15T01:23:45.537Z,64.70
2019-01-15T01:24:45.556Z,64.70
2019-01-15T01:25:45.574Z,63.70
2019-01-15T01:26:45.595Z,63.22
2019-01-15T01:27:45.612Z,63.70
2019-01-15T01:28:45.634Z,65.20
2019-01-15T01:29:45.650Z,65.96
2019-01-15T01:30:45.670Z,66.15
2019-01-15T01:31:45.690Z,66.05
2019-01-15T01:32:45.709Z,66.24
2019-01-15T01:33:45.731Z,66.11
2019-01-15T01:34:45.747Z,66.40
2019-01-15T01:35:45.767Z,66.58
2019-01-15T01:36:45.786Z,67.25
2019-01-15T01:37:45.804Z,67.62
2019-01-15T01:38:45.822Z,67.53
2019-01-15T01:39:45.842Z,67.62
2019-01-15T01:40:45.913Z,68.76
2019-01-15T01:41:45.880Z,69.23
2019-01-15T01:42:45.899Z,69.89
2019-01-15T01:43:45.919Z,69.89
2019-01-15T01:44:45.937Z,69.89
2019-01-15T01:45:45.960Z,69.89
2019-01-15T01:46:45.979Z,69.04
2019-01-15T01:47:45.995Z,68.76
2019-01-15T01:48:46.016Z,66.96
2019-01-15T01:49:46.035Z,65.73
2019-01-15T01:50:46.053Z,65.83
2019-01-15T01:51:46.077Z,65.64
2019-01-15T01:52:46.091Z,65.55
2019-01-15T01:53:46.113Z,65.08
2019-01-15T01:54:46.132Z,64.79
2019-01-15T01:55:46.149Z,64.89
2019-01-15T01:56:46.167Z,64.61
2019-01-15T01:57:46.190Z,64.23
2019-01-15T01:58:46.208Z,63.66
2019-01-15T01:59:46.225Z,63.85
2019-01-15T02:00:46.243Z,63.95
2019-01-15T02:01:46.264Z,64.14
2019-01-15T02:02:46.283Z,64.04
2019-01-15T02:03:46.301Z,64.32
2019-01-15T02:04:46.319Z,64.51
2019-01-15T02:05:46.340Z,65.36
2019-01-15T02:06:46.362Z,65.73
2019-01-15T02:07:46.377Z,66.02
2019-01-15T02:08:46.397Z,66.40
2019-01-15T02:09:46.416Z,64.98
2019-01-15T02:10:46.435Z,66.21
2019-01-15T02:11:46.455Z,66.11
2019-01-15T02:12:46.475Z,64.89
2019-01-15T02:13:46.492Z,64.98
2019-01-15T02:14:46.517Z,66.21
2019-01-15T02:15:46.531Z,68.10
2019-01-15T02:16:46.548Z,66.21
2019-01-15T02:17:46.568Z,66.49
2019-01-15T02:18:46.589Z,65.55
2019-01-15T02:19:46.611Z,66.02
2019-01-15T02:20:46.625Z,66.02
2019-01-15T02:21:46.646Z,67.62
2019-01-15T02:22:46.666Z,66.11
2019-01-15T02:23:46.687Z,65.36
2019-01-15T02:24:46.701Z,64.89
2019-01-15T02:25:46.721Z,65.17
2019-01-15T02:26:46.743Z,64.61
2019-01-15T02:27:46.759Z,64.70
2019-01-15T02:28:46.804Z,64.61
2019-01-15T02:29:46.796Z,64.32
2019-01-15T02:30:46.815Z,63.95
2019-01-15T02:31:46.838Z,64.61
2019-01-15T02:32:46.858Z,63.95
2019-01-15T02:33:46.874Z,64.51
2019-01-15T02:34:46.894Z,64.23
2019-01-15T02:35:46.917Z,63.66
2019-01-15T02:36:46.934Z,63.57
2019-01-15T02:37:46.948Z,64.04
2019-01-15T02:38:46.971Z,63.85
2019-01-15T02:39:46.991Z,63.29
2019-01-15T02:40:47.006Z,63.76
2019-01-15T02:41:47.027Z,63.19
2019-01-15T02:42:47.292Z,63.29
2019-01-15T02:43:47.063Z,63.00
2019-01-15T02:44:47.082Z,63.95
2019-01-15T02:45:47.102Z,63.76
2019-01-15T02:46:47.123Z,63.38
2019-01-15T02:47:47.144Z,63.29
2019-01-15T02:48:47.160Z,63.03
2019-01-15T02:49:47.177Z,62.66
2019-01-15T02:50:47.197Z,62.28
2019-01-15T02:51:47.217Z,61.71
2019-01-15T02:52:47.242Z,61.99
2019-01-15T02:53:47.255Z,62.09
2019-01-15T02:54:47.273Z,61.52
2019-01-15T02:55:47.292Z,61.80
2019-01-15T02:56:47.314Z,61.90
2019-01-15T02:57:47.330Z,61.90
2019-01-15T02:58:47.350Z,61.90
2019-01-15T02:59:47.369Z,61.90
2019-01-15T03:00:47.390Z,62.09
2019-01-15T03:01:47.408Z,62.75
2019-01-15T03:02:47.432Z,62.37
2019-01-15T03:03:47.445Z,63.41
2019-01-15T03:04:47.465Z,64.73
2019-01-15T03:05:47.487Z,64.45
2019-01-15T03:06:47.505Z,63.60
2019-01-15T03:07:47.526Z,63.51
2019-01-15T03:08:47.542Z,63.41
2019-01-15T03:09:47.563Z,63.70
2019-01-15T03:10:47.583Z,64.83
2019-01-15T03:11:47.604Z,63.32
2019-01-15T03:12:54.887Z,63.98
2019-01-15T03:13:47.641Z,63.89
2019-01-15T03:14:47.691Z,64.73
2019-01-15T03:15:47.681Z,63.70
2019-01-15T03:16:47.701Z,63.13
2019-01-15T03:17:47.718Z,62.94
2019-01-15T03:18:47.859Z,63.32
2019-01-15T03:19:47.762Z,62.94
2019-01-15T03:20:47.776Z,63.32
2019-01-15T03:21:47.798Z,63.60
2019-01-15T03:22:47.818Z,63.95
2019-01-15T03:23:47.836Z,63.57
2019-01-15T03:24:47.857Z,63.85
2019-01-15T03:25:47.875Z,64.70
2019-01-15T03:26:47.895Z,63.85
2019-01-15T03:27:47.913Z,64.51
2019-01-15T03:28:47.933Z,65.17
2019-01-15T03:29:47.953Z,64.32
2019-01-15T03:30:47.973Z,64.70
2019-01-15T03:31:47.992Z,64.42
2019-01-15T03:32:48.016Z,64.79
2019-01-15T03:33:48.033Z,64.70
2019-01-15T03:34:48.049Z,63.57
2019-01-15T03:35:48.077Z,63.85
2019-01-15T03:36:48.087Z,64.23
2019-01-15T03:37:48.108Z,64.14
2019-01-15T03:38:48.129Z,64.04
2019-01-15T03:39:48.149Z,63.85
2019-01-15T03:40:48.170Z,64.23
2019-01-15T03:41:48.186Z,63.66
2019-01-15T03:42:48.204Z,64.04
2019-01-15T03:43:48.224Z,63.57
2019-01-15T03:44:48.242Z,64.14
2019-01-15T03:45:48.260Z,63.85
2019-01-15T03:46:48.283Z,64.04
2019-01-15T03:47:48.316Z,63.95
2019-01-15T03:48:48.321Z,64.79
2019-01-15T03:49:48.337Z,65.36
2019-01-15T03:50:48.356Z,65.45
2019-01-15T03:51:48.375Z,63.85
2019-01-15T03:52:48.393Z,64.70
2019-01-15T03:53:48.415Z,65.45
2019-01-15T03:54:48.436Z,64.98
2019-01-15T03:55:48.453Z,65.45
2019-01-15T03:56:48.470Z,64.70
2019-01-15T03:57:48.490Z,64.23
2019-01-15T03:58:48.510Z,64.14
2019-01-15T03:59:48.528Z,63.85
2019-01-15T04:00:48.547Z,63.57
2019-01-15T04:01:48.570Z,63.76
2019-01-15T04:02:48.588Z,63.85
2019-01-15T04:03:48.603Z,63.85
2019-01-15T04:04:48.624Z,63.85
2019-01-15T04:05:48.652Z,64.79
2019-01-15T04:06:48.665Z,64.89
2019-01-15T04:07:48.681Z,64.51
2019-01-15T04:08:48.699Z,65.17
2019-01-15T04:09:48.720Z,65.17
2019-01-15T04:10:48.737Z,65.08
2019-01-15T04:11:48.757Z,64.98
2019-01-15T04:12:48.789Z,65.55
2019-01-15T04:13:48.824Z,65.73
2019-01-15T04:14:48.818Z,66.11
2019-01-15T04:15:48.835Z,66.11
2019-01-15T04:16:48.854Z,64.89
2019-01-15T04:17:48.872Z,63.95
2019-01-15T04:18:50.462Z,64.42
2019-01-15T04:19:48.911Z,64.61
2019-01-15T04:20:48.935Z,64.79
2019-01-15T04:21:48.949Z,64.61
2019-01-15T04:22:48.968Z,63.95
2019-01-15T04:23:48.987Z,64.04
2019-01-15T04:24:49.008Z,64.14
2019-01-15T04:25:49.024Z,63.95
2019-01-15T04:26:49.043Z,63.66
2019-01-15T04:27:49.068Z,63.95
2019-01-15T04:28:49.085Z,63.85
2019-01-15T04:29:49.102Z,63.66
2019-01-15T04:30:49.127Z,63.76
2019-01-15T04:31:49.152Z,64.32
2019-01-15T04:32:49.160Z,64.79
2019-01-15T04:33:49.176Z,64.70
2019-01-15T04:34:49.325Z,64.42
2019-01-15T04:35:49.216Z,64.70
2019-01-15T04:36:49.237Z,64.14
2019-01-15T04:37:49.252Z,64.51
2019-01-15T04:38:49.275Z,65.64
2019-01-15T04:39:49.292Z,66.02
2019-01-15T04:40:49.310Z,65.36
2019-01-15T04:41:49.333Z,65.92
2019-01-15T04:42:49.350Z,66.02
2019-01-15T04:43:49.381Z,64.98
2019-01-15T04:44:49.388Z,64.23
2019-01-15T04:45:49.408Z,63.85
2019-01-15T04:46:49.429Z,63.66
2019-01-15T04:47:49.449Z,64.32
2019-01-15T04:48:49.483Z,63.85
2019-01-15T04:49:49.482Z,65.17
2019-01-15T04:50:49.503Z,66.02
2019-01-15T04:51:49.524Z,65.73
2019-01-15T04:52:49.539Z,64.89
2019-01-15T04:53:49.563Z,64.98
2019-01-15T04:54:49.588Z,65.92
2019-01-15T04:55:49.600Z,66.96
2019-01-15T04:56:49.619Z,67.43
2019-01-15T04:57:49.635Z,66.40
2019-01-15T04:58:49.655Z,65.26
2019-01-15T04:59:49.675Z,66.02
2019-01-15T05:00:49.692Z,66.11
2019-01-15T05:01:49.717Z,64.14
2019-01-15T05:02:49.737Z,64.23
2019-01-15T05:03:49.919Z,64.14
2019-01-15T05:04:49.769Z,64.04
2019-01-15T05:05:49.835Z,63.19
2019-01-15T05:06:49.807Z,63.38
2019-01-15T05:07:49.843Z,63.29
2019-01-15T05:08:49.848Z,62.81
2019-01-15T05:09:49.864Z,63.00
2019-01-15T05:10:49.888Z,62.94
2019-01-15T05:11:49.907Z,62.84
2019-01-15T05:12:49.923Z,62.56
2019-01-15T05:13:49.945Z,62.75
2019-01-15T05:14:49.960Z,62.09
2019-01-15T05:15:49.981Z,62.28
2019-01-15T05:16:49.999Z,61.99
2019-01-15T05:17:50.023Z,62.18
2019-01-15T05:18:50.045Z,62.18
2019-01-15T05:19:50.063Z,61.80
2019-01-15T05:20:50.076Z,61.24
2019-01-15T05:21:50.105Z,61.33
2019-01-15T05:22:50.122Z,61.24
2019-01-15T05:23:50.148Z,61.33
2019-01-15T05:24:50.158Z,61.43
2019-01-15T05:25:50.175Z,61.15
2019-01-15T05:26:50.195Z,61.33
2019-01-15T05:27:50.268Z,61.15
2019-01-15T05:28:50.236Z,60.96
2019-01-15T05:29:50.259Z,60.96
2019-01-15T05:30:50.276Z,61.05
2019-01-15T05:31:50.294Z,60.96
2019-01-15T05:32:50.358Z,61.24
2019-01-15T05:33:50.336Z,60.96
2019-01-15T05:34:50.353Z,60.96
2019-01-15T05:35:50.373Z,61.05
2019-01-15T05:36:50.396Z,60.86
2019-01-15T05:37:50.417Z,60.86
2019-01-15T05:38:50.435Z,61.24
2019-01-15T05:39:50.456Z,60.96
2019-01-15T05:40:50.472Z,61.43
2019-01-15T05:41:50.496Z,60.96
2019-01-15T05:42:50.517Z,61.43
2019-01-15T05:43:50.535Z,61.33
2019-01-15T05:44:50.554Z,61.24
2019-01-15T05:45:50.576Z,61.33
2019-01-15T05:46:50.597Z,60.77
2019-01-15T05:47:50.617Z,60.96
2019-01-15T05:48:50.634Z,61.43
2019-01-15T05:49:50.805Z,60.86
2019-01-15T05:50:50.678Z,61.15
2019-01-15T05:51:50.694Z,60.96
2019-01-15T05:52:50.729Z,60.86
2019-01-15T05:53:50.740Z,60.96
2019-01-15T05:54:50.755Z,60.86
2019-01-15T05:55:50.777Z,61.05
2019-01-15T05:56:50.795Z,60.96
2019-01-15T05:57:50.818Z,60.68
2019-01-15T05:58:50.836Z,60.96
2019-01-15T05:59:50.859Z,60.77
2019-01-15T06:00:50.877Z,60.68
2019-01-15T06:01:50.899Z,60.77
2019-01-15T06:02:51.083Z,60.30
2019-01-15T06:03:50.937Z,60.58
2019-01-15T06:04:50.959Z,60.58
2019-01-15T06:05:50.977Z,60.77
2019-01-15T06:06:50.997Z,60.58
2019-01-15T06:07:51.024Z,60.39
2019-01-15T06:08:51.037Z,60.49
2019-01-15T06:09:51.059Z,60.68
2019-01-15T06:10:51.082Z,60.68
2019-01-15T06:11:51.100Z,61.05
2019-01-15T06:12:51.117Z,60.77
2019-01-15T06:13:51.140Z,60.96
2019-01-15T06:14:51.163Z,61.43
2019-01-15T06:15:51.183Z,61.33
2019-01-15T06:16:51.205Z,61.24
2019-01-15T06:17:51.224Z,61.33
2019-01-15T06:18:51.243Z,61.43
2019-01-15T06:19:51.261Z,61.52
2019-01-15T06:20:51.281Z,61.24
2019-01-15T06:21:51.314Z,61.24
2019-01-15T06:22:51.324Z,61.24
2019-01-15T06:23:51.346Z,61.05
2019-01-15T06:24:51.363Z,61.80
2019-01-15T06:25:51.384Z,61.71
2019-01-15T06:26:51.410Z,61.52
2019-01-15T06:27:51.428Z,61.80
2019-01-15T06:28:51.445Z,61.90
2019-01-15T06:29:51.464Z,62.09
2019-01-15T06:30:51.487Z,61.90
2019-01-15T06:31:51.504Z,61.90
2019-01-15T06:32:51.525Z,61.52
2019-01-15T06:33:51.549Z,61.90
2019-01-15T06:34:51.572Z,61.05
2019-01-15T06:35:51.588Z,61.52
2019-01-15T06:36:51.607Z,61.33
2019-01-15T06:37:51.630Z,60.96
2019-01-15T06:38:51.649Z,61.33
2019-01-15T06:39:51.670Z,60.77
2019-01-15T06:40:51.691Z,60.49
2019-01-15T06:41:51.708Z,60.30
2019-01-15T06:42:51.730Z,60.39
2019-01-15T06:43:51.752Z,60.21
2019-01-15T06:44:51.770Z,60.49
2019-01-15T06:45:51.792Z,60.30
2019-01-15T06:46:51.811Z,59.73
2019-01-15T06:47:51.833Z,60.02
2019-01-15T06:48:51.852Z,60.02
2019-01-15T06:49:51.875Z,60.21
2019-01-15T06:50:51.899Z,59.83
2019-01-15T06:51:51.918Z,59.83
2019-01-15T06:52:51.939Z,59.64
2019-01-15T06:53:51.957Z,60.11
2019-01-15T06:54:51.981Z,59.73
2019-01-15T06:55:51.999Z,59.95
2019-01-15T06:56:52.028Z,59.86
2019-01-15T06:57:52.040Z,59.95
2019-01-15T06:58:52.067Z,59.76
2019-01-15T06:59:52.081Z,59.64
2019-01-15T07:00:52.101Z,59.35
2019-01-15T07:01:52.126Z,59.38
2019-01-15T07:02:52.149Z,59.45
2019-01-15T07:03:52.166Z,59.86
2019-01-15T07:04:52.185Z,59.92
2019-01-15T07:05:52.210Z,59.86
2019-01-15T07:06:52.230Z,59.67
2019-01-15T07:07:52.249Z,59.67
2019-01-15T07:08:52.270Z,59.67
2019-01-15T07:09:52.290Z,59.67
2019-01-15T07:10:52.311Z,59.48
2019-01-15T07:11:52.335Z,59.67
2019-01-15T07:12:52.355Z,59.67
2019-01-15T07:13:57.033Z,59.76
2019-01-15T07:14:52.395Z,59.19
2019-01-15T07:15:52.418Z,59.29
2019-01-15T07:16:52.438Z,59.38
2019-01-15T07:17:52.458Z,59.00
2019-01-15T07:18:52.481Z,59.48
2019-01-15T07:19:52.503Z,59.76
2019-01-15T07:20:52.525Z,59.45
2019-01-15T07:21:52.545Z,59.83
2019-01-15T07:22:52.564Z,59.45
2019-01-15T07:23:52.588Z,59.73
2019-01-15T07:24:52.606Z,60.39
2019-01-15T07:25:52.628Z,60.86
2019-01-15T07:26:52.651Z,61.43
2019-01-15T07:27:52.671Z,61.24
2019-01-15T07:28:52.689Z,61.24
2019-01-15T07:29:52.712Z,60.68
2019-01-15T07:30:52.734Z,60.21
2019-01-15T07:31:52.753Z,60.30
2019-01-15T07:32:52.773Z,60.21
2019-01-15T07:33:52.798Z,60.68
2019-01-15T07:34:52.818Z,61.05
2019-01-15T07:35:52.839Z,62.09
2019-01-15T07:36:52.859Z,63.89
2019-01-15T07:37:52.888Z,63.26
2019-01-15T07:38:52.903Z,64.67
2019-01-15T07:39:52.959Z,67.69
2019-01-15T07:40:52.947Z,68.26
2019-01-15T07:41:52.967Z,71.56
2019-01-15T07:42:52.986Z,77.17
2019-01-15T07:43:53.007Z,82.09
2019-01-15T07:44:53.029Z,85.30
2019-01-15T07:45:53.048Z,87.94
2019-01-15T07:46:53.071Z,93.04
2019-01-15T07:47:53.094Z,97.72
2019-01-15T07:48:53.113Z,99.99
2019-01-15T07:49:53.134Z,99.99
2019-01-15T07:50:53.160Z,93.99
2019-01-15T07:51:53.181Z,85.11
2019-01-15T07:52:53.201Z,79.16
2019-01-15T07:53:53.222Z,75.00
2019-01-15T07:54:53.249Z,71.98
2019-01-15T07:55:53.267Z,69.86
2019-01-15T07:56:53.288Z,68.92
2019-01-15T07:57:53.310Z,68.54
2019-01-15T07:58:53.335Z,68.92
2019-01-15T07:59:53.354Z,68.82
2019-01-15T08:00:53.377Z,68.73
2019-01-15T08:01:53.398Z,68.73
2019-01-15T08:02:53.425Z,69.39
2019-01-15T08:03:53.442Z,70.62
2019-01-15T08:04:53.471Z,71.69
2019-01-15T08:05:53.486Z,73.02
2019-01-15T08:06:53.509Z,75.19
2019-01-15T08:07:53.533Z,76.89
2019-01-15T08:08:53.551Z,83.22
2019-01-15T08:09:53.577Z,92.90
2019-01-15T08:10:57.084Z,98.76
2019-01-15T08:11:53.618Z,97.06
2019-01-15T08:12:53.644Z,96.78
2019-01-15T08:13:53.669Z,99.23
2019-01-15T08:14:53.688Z,99.99
2019-01-15T08:15:53.711Z,99.99
2019-01-15T08:16:53.731Z,99.99
2019-01-15T08:17:53.755Z,95.92
2019-01-15T08:18:53.781Z,89.36
2019-01-15T08:19:53.803Z,83.97
2019-01-15T08:20:53.824Z,79.91
2019-01-15T08:21:54.922Z,77.36
2019-01-15T08:22:53.869Z,76.23
2019-01-15T08:23:53.891Z,74.15
2019-01-15T08:24:53.911Z,73.58
2019-01-15T08:25:53.934Z,72.45
2019-01-15T08:26:53.957Z,72.83
2019-01-15T08:27:53.984Z,73.21
2019-01-15T08:28:54.002Z,74.34
2019-01-15T08:29:54.024Z,71.60
2019-01-15T08:30:54.048Z,70.56
2019-01-15T08:31:54.075Z,68.76
2019-01-15T08:32:54.092Z,66.03
2019-01-15T08:33:54.115Z,65.27
2019-01-15T08:34:54.139Z,64.98
2019-01-15T08:35:54.165Z,65.65
2019-01-15T08:36:54.184Z,66.69
2019-01-15T08:37:54.208Z,67.91
2019-01-15T08:38:54.228Z,69.14
2019-01-15T08:39:54.256Z,70.94
2019-01-15T08:40:54.272Z,70.09
2019-01-15T08:41:54.296Z,69.33
2019-01-15T08:42:54.321Z,70.00
2019-01-15T08:43:54.340Z,66.88
2019-01-15T08:44:54.363Z,68.86
2019-01-15T08:45:55.314Z,78.72
2019-01-15T08:46:54.407Z,92.43
2019-01-15T08:47:54.430Z,91.10
2019-01-15T08:48:54.450Z,88.84
2019-01-15T08:49:54.475Z,86.10
2019-01-15T08:50:54.496Z,85.15
2019-01-15T08:51:54.521Z,87.61
2019-01-15T08:52:54.542Z,89.59
2019-01-15T08:53:54.564Z,91.48
2019-01-15T08:54:54.590Z,97.30
2019-01-15T08:55:54.611Z,99.99
2019-01-15T08:56:54.632Z,99.99
2019-01-15T08:57:54.654Z,99.99
2019-01-15T08:58:54.678Z,99.99
2019-01-15T08:59:54.703Z,99.99
2019-01-15T09:00:54.727Z,99.99
2019-01-15T09:01:54.749Z,99.99
2019-01-15T09:02:54.770Z,99.99
2019-01-15T09:03:54.797Z,99.99
2019-01-15T09:04:54.821Z,99.99
2019-01-15T09:05:54.841Z,97.63
2019-01-15T09:06:54.863Z,99.23
2019-01-15T09:07:54.886Z,99.99
2019-01-15T09:08:54.909Z,99.99
2019-01-15T09:09:54.931Z,99.99
2019-01-15T09:10:54.957Z,99.99
2019-01-15T09:11:54.982Z,99.99
2019-01-15T09:12:55.002Z,99.99
2019-01-15T09:13:55.031Z,99.99
2019-01-15T09:14:56.706Z,99.99
2019-01-15T09:15:55.071Z,99.99
2019-01-15T09:16:55.097Z,99.99
2019-01-15T09:17:55.120Z,99.99
2019-01-15T09:18:55.142Z,98.90
2019-01-15T09:19:55.170Z,97.30
2019-01-15T09:20:55.189Z,94.32
2019-01-15T09:21:55.215Z,92.24
2019-01-15T09:22:55.240Z,92.14
2019-01-15T09:23:55.263Z,90.44
2019-01-15T09:24:55.282Z,86.19
2019-01-15T09:25:55.308Z,85.24
2019-01-15T09:26:55.328Z,85.91
2019-01-15T09:27:55.358Z,88.84
2019-01-15T09:28:55.376Z,80.05
2019-01-15T09:29:55.399Z,79.71
2019-01-15T09:30:55.421Z,80.65
2019-01-15T09:31:55.446Z,81.60
2019-01-15T09:32:55.468Z,85.72
2019-01-15T09:33:55.490Z,89.54
2019-01-15T09:34:55.517Z,82.69
2019-01-15T09:35:55.540Z,84.01
2019-01-15T09:36:55.560Z,81.74
2019-01-15T09:37:55.606Z,74.57
2019-01-15T09:38:55.608Z,79.67
2019-01-15T09:39:55.628Z,77.87
2019-01-15T09:40:55.650Z,79.67
2019-01-15T09:41:55.673Z,79.95
2019-01-15T09:42:55.698Z,88.17
2019-01-15T09:43:55.719Z,84.77
2019-01-15T09:44:55.747Z,84.68
2019-01-15T09:45:55.769Z,87.13
2019-01-15T09:46:55.787Z,94.89
2019-01-15T09:47:55.810Z,94.79
2019-01-15T09:48:55.831Z,97.81
2019-01-15T09:49:55.855Z,91.67
2019-01-15T09:50:55.880Z,98.66
2019-01-15T09:51:55.901Z,94.98
2019-01-15T09:52:55.925Z,96.68
2019-01-15T09:53:55.946Z,99.99
2019-01-15T09:54:55.968Z,99.23
2019-01-15T09:55:55.996Z,99.99
2019-01-15T09:56:56.014Z,99.99
2019-01-15T09:57:56.037Z,99.99
2019-01-15T09:58:56.059Z,99.99
2019-01-15T09:59:56.081Z,99.99
2019-01-15T10:00:56.106Z,99.99
2019-01-15T10:01:56.126Z,99.99
2019-01-15T10:02:56.151Z,99.99
2019-01-15T10:03:56.172Z,99.99
2019-01-15T10:04:56.194Z,99.99
2019-01-15T10:05:56.222Z,99.99
2019-01-15T10:06:56.244Z,99.99
2019-01-15T10:07:56.265Z,99.99
2019-01-15T10:08:56.288Z,99.99
2019-01-15T10:09:56.309Z,99.99
2019-01-15T10:10:56.336Z,99.99
2019-01-15T10:11:56.359Z,99.99
2019-01-15T10:12:56.380Z,99.99
2019-01-15T10:13:56.405Z,99.99
2019-01-15T10:14:56.425Z,99.99
2019-01-15T10:15:56.449Z,99.99
2019-01-15T10:16:56.471Z,99.99
2019-01-15T10:17:56.496Z,99.99
2019-01-15T10:18:56.518Z,99.99
2019-01-15T10:19:56.543Z,99.99
2019-01-15T10:20:56.566Z,99.99
2019-01-15T10:21:56.590Z,99.99
2019-01-15T10:22:56.613Z,99.99
2019-01-15T10:23:56.644Z,99.99
2019-01-15T10:24:56.659Z,99.99
2019-01-15T10:25:56.683Z,99.99
2019-01-15T10:26:56.711Z,99.99
2019-01-15T10:27:56.732Z,99.99
2019-01-15T10:28:56.758Z,99.99
2019-01-15T10:29:59.261Z,99.99
2019-01-15T10:30:56.804Z,99.99
2019-01-15T10:31:56.828Z,99.99
2019-01-15T10:32:56.855Z,99.99
2019-01-15T10:33:56.879Z,99.99
2019-01-15T10:34:56.904Z,99.99
2019-01-15T10:35:56.931Z,99.99
2019-01-15T10:36:56.954Z,99.99
2019-01-15T10:37:56.984Z,99.99
2019-01-15T10:38:57.005Z,99.99
2019-01-15T10:39:57.031Z,99.99
2019-01-15T10:40:57.056Z,99.99
2019-01-15T10:41:57.084Z,99.99
2019-01-15T10:42:57.107Z,99.99
2019-01-15T10:43:57.135Z,99.99
2019-01-15T10:44:57.156Z,99.99
2019-01-15T10:45:57.181Z,99.99
2019-01-15T10:46:57.207Z,99.99
2019-01-15T10:47:57.231Z,99.99
2019-01-15T10:48:57.255Z,99.99
2019-01-15T10:49:57.279Z,99.99
2019-01-15T10:50:57.306Z,99.99
2019-01-15T10:51:57.334Z,99.99
2019-01-15T10:52:57.354Z,99.99
2019-01-15T10:53:57.378Z,99.99
2019-01-15T10:54:57.402Z,99.99
2019-01-15T10:55:57.429Z,99.99
2019-01-15T10:56:57.450Z,99.99
2019-01-15T10:57:58.440Z,99.99
2019-01-15T10:58:57.497Z,99.99
2019-01-15T10:59:57.523Z,99.99
2019-01-15T11:00:57.545Z,99.99
2019-01-15T11:01:57.572Z,99.99
2019-01-15T11:02:57.595Z,99.99
2019-01-15T11:03:57.618Z,99.99
2019-01-15T11:04:57.644Z,99.99
2019-01-15T11:05:57.667Z,99.99
2019-01-15T11:06:57.688Z,99.99
2019-01-15T11:07:57.713Z,99.99
2019-01-15T11:08:57.736Z,99.99
2019-01-15T11:09:57.758Z,99.99
2019-01-15T11:10:57.781Z,99.99
2019-01-15T11:11:57.805Z,99.99
2019-01-15T11:12:57.831Z,99.99
2019-01-15T11:13:57.852Z,99.99
2019-01-15T11:14:57.884Z,99.99
2019-01-15T11:15:57.900Z,99.99
2019-01-15T11:16:57.922Z,99.99
2019-01-15T11:17:57.946Z,99.99
2019-01-15T11:18:57.968Z,99.99
2019-01-15T11:19:57.991Z,99.99
2019-01-15T11:20:58.013Z,99.99
2019-01-15T11:21:58.036Z,99.99
2019-01-15T11:22:58.067Z,99.99
2019-01-15T11:23:58.088Z,99.99
2019-01-15T11:24:58.107Z,99.99
2019-01-15T11:25:58.130Z,99.99
2019-01-15T11:26:58.152Z,99.99
2019-01-15T11:27:58.174Z,99.99
2019-01-15T11:28:58.198Z,99.99
2019-01-15T11:29:58.223Z,99.99
2019-01-15T11:30:58.248Z,99.99
2019-01-15T11:31:58.270Z,99.99
2019-01-15T11:32:58.293Z,99.99
2019-01-15T11:33:58.313Z,99.99
2019-01-15T11:34:58.337Z,99.99
2019-01-15T11:35:58.361Z,99.99
2019-01-15T11:36:58.420Z,99.99
2019-01-15T11:37:58.405Z,99.99
2019-01-15T11:38:58.427Z,99.99
2019-01-15T11:39:58.452Z,99.99
2019-01-15T11:40:58.472Z,99.99
2019-01-15T11:41:58.499Z,99.99
2019-01-15T11:42:58.522Z,99.99
2019-01-15T11:43:58.543Z,99.99
2019-01-15T11:45:03.371Z,99.99
2019-01-15T11:45:58.588Z,99.99
2019-01-15T11:46:58.613Z,99.99
2019-01-15T11:47:58.637Z,99.99
2019-01-15T11:48:58.658Z,99.99
2019-01-15T11:49:58.682Z,99.99
2019-01-15T11:50:58.703Z,99.99
2019-01-15T11:51:58.729Z,99.99
2019-01-15T11:52:58.750Z,99.99
2019-01-15T11:53:58.772Z,99.99
2019-01-15T11:54:58.795Z,99.99
2019-01-15T11:55:58.829Z,99.99
2019-01-15T11:56:58.841Z,99.99
2019-01-15T11:57:58.863Z,99.99
2019-01-15T11:58:58.888Z,99.99
2019-01-15T11:59:58.912Z,99.99
2019-01-15T12:00:58.935Z,99.99
2019-01-15T12:01:58.957Z,99.99
2019-01-15T12:02:58.979Z,99.99
2019-01-15T12:03:59.005Z,99.99
2019-01-15T12:04:59.025Z,99.99
2019-01-15T12:05:59.051Z,99.99
2019-01-15T12:06:59.070Z,99.99
2019-01-15T12:07:59.094Z,99.99
2019-01-15T12:08:59.119Z,99.99
2019-01-15T12:09:59.138Z,99.99
2019-01-15T12:10:59.163Z,99.99
2019-01-15T12:11:59.190Z,99.99
2019-01-15T12:12:59.208Z,99.99
2019-01-15T12:13:59.235Z,99.99
2019-01-15T12:14:59.257Z,99.99
2019-01-15T12:15:59.278Z,99.99
2019-01-15T12:16:59.298Z,99.99
2019-01-15T12:17:59.325Z,99.99
2019-01-15T12:18:59.343Z,99.99
2019-01-15T12:19:59.375Z,99.99
2019-01-15T12:20:59.393Z,99.99
2019-01-15T12:21:59.421Z,99.99
2019-01-15T12:22:59.439Z,99.99
2019-01-15T12:23:59.460Z,99.23
2019-01-15T12:24:59.482Z,99.14
2019-01-15T12:25:59.508Z,98.28
2019-01-15T12:26:59.529Z,98.00
2019-01-15T12:27:59.553Z,98.19
2019-01-15T12:28:59.577Z,98.10
2019-01-15T12:29:59.596Z,96.87
2019-01-15T12:30:59.621Z,97.06
2019-01-15T12:31:59.647Z,96.02
2019-01-15T12:32:59.663Z,97.72
2019-01-15T12:33:59.689Z,95.64
2019-01-15T12:34:59.713Z,96.40
2019-01-15T12:35:59.732Z,94.98
2019-01-15T12:36:59.754Z,95.26
2019-01-15T12:37:59.781Z,95.73
2019-01-15T12:38:59.804Z,97.91
2019-01-15T12:39:59.825Z,98.95
2019-01-15T12:40:59.848Z,97.06
2019-01-15T12:41:59.869Z,98.28
2019-01-15T12:42:59.892Z,98.19
2019-01-15T12:43:59.914Z,96.59
2019-01-15T12:44:59.935Z,96.11
2019-01-15T12:45:59.968Z,96.11
2019-01-15T12:46:59.980Z,97.44
2019-01-15T12:48:00.005Z,97.34
2019-01-15T12:49:00.028Z,98.38
2019-01-15T12:50:00.090Z,97.72
2019-01-15T12:51:00.079Z,98.10
2019-01-15T12:52:00.096Z,99.99
2019-01-15T12:53:00.117Z,99.99